KRNH/RNH METAR and TAF weather

Enter ICAO airport designator
Station Type Date Time Source
KRNH METAR 2019/02/20 23:35 UTC NOAA

KRNH 202335Z AUTO 17005KT 4SM -SN SCT014 BKN022 OVC060 M03/M05 A2957 RMK AO2 T10301051


Station Type Date Time Source
KRNH Decoded METAR 2019/02/20 23:35 UTC NOAA

New Richmond, New Richmond Municipal Airport, WI, United States (KRNH) 45-08-54N 092-32-17W
Feb 20, 2019 - 06:35 PM EST / 2019.02.20 2335 UTC
Wind: from the S (170 degrees) at 6 MPH (5 KT):0
Visibility: 4 mile(s):0
Sky conditions: overcast
Weather: light snow
Temperature: 26.6 F (-3.0 C)
Windchill: 19 F (-7 C):1
Dew Point: 22.8 F (-5.1 C)
Relative Humidity: 85%
Pressure (altimeter): 29.57 in. Hg (1001 hPa)
ob: KRNH 202335Z AUTO 17005KT 4SM -SN SCT014 BKN022 OVC060 M03/M05 A2957 RMK AO2 T10301051
cycle: 23

Station Type Date Time Source
KRNH TAF 2019/02/20 20:09 UTC NOAA

TAF
AMD KRNH 202006Z 2020/2118 12006KT 2SM -SN OVC015
FM210000 20007KT P6SM OVC009
FM210600 25007KT P6SM OVC009
FM211500 26007KT P6SM BKN025


Example: see airport list